Main page
METAR-TAF:

METAR-TAF

Airports :

Volgograd International Airport

Volgograd, Russia

latitude: 48-47N, longitude: 044-22E, elevation: 145 m

Current weather observation

The report was made 26 minutes ago, at 02:00 UTC
Wind 10 kt from the East/Southeast
Temperature 13°C
Humidity 82%
Pressure 1022 hPa
Visibility 10 km or more
no clouds below 1500 m and no cumulonimbus

METAR: URWW 220200Z 11005MPS CAVOK 13/10 Q1022 R06/010070 NOSIG

Time: 05:26 (02:26 UTC)

Forecast

The report was made 3 hours and 27 minutes ago, at 22:59 UTC
Forecast valid from 22 at 00 UTC to 22 at 09 UTC
Wind 10 kt from the East with gusts up to 19 kt
Visibility 10 km or more
no clouds below 1500 m and no cumulonimbus
Temporary
from 22 at 00 UTC to 22 at 09 UTC
Wind 6 kt from the East/Northeast with gusts up to 16 kt

TAF: URWW 212259Z 2200/2209 09005G10MPS CAVOK TEMPO 2200/2209 06003G08MPS

Weather observations and forecasts of more than 4000 airports (METAR and TAF reports).

The available stations are represented by yellow and red dots on the map.

Hover mouse over dot to see the name of the station.

Then click to see weather observations and forecasts.

To change the map : click on the green buttons with a black cross to zoom in, on the green button with a dash to zoom out, or on the green arrows for adjacent maps.


METAR-TAF: